Spokane International Airport
KGEG : now visible

Airfield :











YOU CAN JOIN US ON...

 
LOGIN :

Register | Disclaimer

   EN    FR    IT 

 









Legend :    VFR   Marginal VFR   IFR   Intensive IFR   Very Intensive IFR
Visi :
Ceiling :
>= 8 km
>= 3000ft
5 to 8 km
1000 to 3000 ft
1500m to 5 km
500 to 1000 ft
800 to 1500m
200 to 500 ft
< 800m
< 200 ft
Symbols :   Thunderstorms  Fog  Heavy snow  Heavy precipitations  Wind > 20 kt







- Airport Elevation : 2376 ft
- IATA code : GEG


KGEG - Spokane International

CURRENT METAR :
  • 261353Z 07007KT 10SM FEW035 BKN048 BKN065 12/08 A2983 RMK AO2 SLP094 SHRA DSNT NW-N-NE T01170078

EXPIRED METARs :
  • 261253Z 03007KT 10SM FEW018 BKN046 OVC065 11/08 A2981 RMK AO2 RAE11 SLP088 VCSH S-SW P0000 T01110083
  • 261153Z 04008KT 10SM -RA FEW018 BKN048 OVC060 11/08 A2980 RMK AO2 RAE18B47 SLP086 P0000 60015 70015 T01110083 10133 20111 55002

TAF KGEG
Valid from the 26 at 12:00 until the 27 at 12:00 UTC


261135Z 2612/2712 01009KT P6SM -SHRA BKN050 OVC060
FM261700 06016G22KT P6SM BKN050
FM262000 05015G22KT P6SM -SHRA BKN050 BKN100
FM270000 03013KT P6SM SCT100 BKN250
FM270400 03007KT P6SM FEW060 SCT250
KZSE FIR / North America



MET'MAP, your aeronautical weather chart ! - Copyright ORBIFLY December 2007 - Disclaimer

ORBIFLY MET'MAP TEAM :

Programming & Development : Alexandra Zaïnal
Concept & Development : Baudouin d'Aumeries
Co-Development & Prog : Marc-Olivier Méhu
Technical & hardware support : Manuel Goepfert

Contact : metmap@orbifly.com




SOURCES & CREDITS :

   NOAA       Earth
Advisory